createdAt,value
2023-04-05T00:02:10.983Z,98172.69
2023-04-05T00:04:42.474Z,98157.19
2023-04-05T00:07:12.356Z,98169.72
2023-04-05T00:09:39.870Z,98157.75
2023-04-05T00:12:07.568Z,98154.50
2023-04-05T00:14:36.390Z,98153.44
2023-04-05T00:17:04.257Z,98159.06
2023-04-05T00:19:33.860Z,98147.09
2023-04-05T00:22:01.495Z,98162.44
2023-04-05T00:24:29.458Z,98162.53
2023-04-05T00:26:57.554Z,98153.22
2023-04-05T00:29:25.199Z,98152.25
2023-04-05T00:31:54.714Z,98150.00
2023-04-05T00:34:22.322Z,98150.94
2023-04-05T00:36:50.113Z,98144.38
2023-04-05T00:39:17.840Z,98153.56
2023-04-05T00:41:48.595Z,98151.41
2023-04-05T00:44:16.362Z,98143.94
2023-04-05T00:46:44.951Z,98142.41
2023-04-05T00:49:13.848Z,98133.06
2023-04-05T00:51:42.033Z,98137.69
2023-04-05T00:54:11.604Z,98141.22
2023-04-05T00:56:40.015Z,98143.44
2023-04-05T00:59:07.678Z,98129.22
2023-04-05T01:01:37.860Z,98124.00
2023-04-05T01:04:07.309Z,98128.38
2023-04-05T01:06:48.034Z,98128.38
2023-04-05T01:09:23.409Z,98127.94
2023-04-05T01:11:52.971Z,98123.84
2023-04-05T01:14:20.453Z,98131.94
2023-04-05T01:16:49.740Z,98123.44
2023-04-05T01:19:17.322Z,98126.16
2023-04-05T01:22:14.397Z,98129.97
2023-04-05T01:24:50.817Z,98113.28
2023-04-05T01:27:21.077Z,98124.88
2023-04-05T01:29:52.399Z,98125.53
2023-04-05T01:32:27.887Z,98119.34
2023-04-05T01:35:03.489Z,98116.44
2023-04-05T01:37:33.691Z,98112.69
2023-04-05T01:40:01.846Z,98116.56
2023-04-05T01:42:29.367Z,98115.72
2023-04-05T01:44:59.000Z,98108.81
2023-04-05T01:47:26.521Z,98108.72
2023-04-05T01:49:54.067Z,98114.25
2023-04-05T01:52:22.549Z,98109.94
2023-04-05T01:54:50.372Z,98110.78
2023-04-05T01:57:18.367Z,98105.78
2023-04-05T01:59:46.524Z,98100.31
2023-04-05T02:02:15.614Z,98101.28
2023-04-05T02:04:43.399Z,98104.50
2023-04-05T02:07:10.955Z,98106.72
2023-04-05T02:09:38.463Z,98109.22
2023-04-05T02:12:06.247Z,98100.78
2023-04-05T02:14:33.780Z,98104.72
2023-04-05T02:17:03.179Z,98098.75
2023-04-05T02:19:37.182Z,98093.34
2023-04-05T02:22:04.762Z,98105.25
2023-04-05T02:24:32.273Z,98101.28
2023-04-05T02:26:59.788Z,98096.47
2023-04-05T02:29:27.411Z,98099.59
2023-04-05T02:31:55.019Z,98104.94
2023-04-05T02:34:23.268Z,98099.47
2023-04-05T02:36:52.895Z,98102.31
2023-04-05T02:39:20.691Z,98104.81
2023-04-05T02:41:48.225Z,98101.59
2023-04-05T02:44:15.927Z,98097.09
2023-04-05T02:46:43.412Z,98094.88
2023-04-05T02:49:11.729Z,98096.31
2023-04-05T02:51:39.278Z,98097.59
2023-04-05T02:54:11.422Z,98095.72
2023-04-05T02:56:39.752Z,98091.91
2023-04-05T02:59:13.559Z,98093.72
2023-04-05T03:01:44.314Z,98096.84
2023-04-05T03:04:20.120Z,98100.06
2023-04-05T03:06:50.993Z,98093.34
2023-04-05T03:09:22.395Z,98095.34
2023-04-05T03:11:54.049Z,98090.41
2023-04-05T03:14:21.724Z,98090.22
2023-04-05T03:16:50.529Z,98095.22
2023-04-05T03:19:26.076Z,98086.72
2023-04-05T03:21:59.541Z,98084.31
2023-04-05T03:24:33.264Z,98085.16
2023-04-05T03:27:05.919Z,98080.38
2023-04-05T03:29:39.527Z,98070.59
2023-04-05T03:32:13.994Z,98077.59
2023-04-05T03:34:47.999Z,98068.59
2023-04-05T03:37:17.338Z,98078.31
2023-04-05T03:39:51.944Z,98074.13
2023-04-05T03:42:20.327Z,98079.53
2023-04-05T03:44:51.310Z,98077.88
2023-04-05T03:47:18.810Z,98093.50
2023-04-05T03:49:46.381Z,98087.44
2023-04-05T03:52:13.888Z,98089.38
2023-04-05T03:54:45.439Z,98080.00
2023-04-05T03:57:17.150Z,98086.34
2023-04-05T03:59:46.344Z,98084.75
2023-04-05T04:02:15.881Z,98085.44
2023-04-05T04:04:43.451Z,98080.31
2023-04-05T04:07:11.643Z,98081.91
2023-04-05T04:09:39.723Z,98084.38
2023-04-05T04:12:10.110Z,98077.59
2023-04-05T04:14:45.691Z,98085.69
2023-04-05T04:17:28.846Z,98089.69
2023-04-05T04:20:22.054Z,98087.00
2023-04-05T04:23:10.058Z,98089.94
2023-04-05T04:25:55.864Z,98086.00
2023-04-05T04:28:46.292Z,98095.94
2023-04-05T04:31:25.224Z,98093.34
2023-04-05T04:34:05.519Z,98084.91
2023-04-05T04:37:01.250Z,98089.25
2023-04-05T04:39:48.766Z,98092.28
2023-04-05T04:42:33.702Z,98093.78
2023-04-05T04:45:40.027Z,98099.81
2023-04-05T04:48:23.750Z,98089.47
2023-04-05T04:50:58.718Z,98086.47
2023-04-05T04:53:28.197Z,98089.22
2023-04-05T04:55:57.286Z,98097.22
2023-04-05T04:58:24.824Z,98095.09
2023-04-05T05:01:01.836Z,98090.06
2023-04-05T05:03:30.764Z,98090.91
2023-04-05T05:05:58.489Z,98087.66
2023-04-05T05:08:31.397Z,98097.47
2023-04-05T05:10:58.976Z,98098.59
2023-04-05T05:13:26.523Z,98095.53
2023-04-05T05:15:54.520Z,98098.47
2023-04-05T05:18:25.234Z,98092.00
2023-04-05T05:20:54.156Z,98086.91
2023-04-05T05:23:21.829Z,98092.69
2023-04-05T05:25:49.346Z,98090.50
2023-04-05T05:28:17.425Z,98082.25
2023-04-05T05:30:45.405Z,98087.66
2023-04-05T05:33:13.234Z,98085.88
2023-04-05T05:35:43.066Z,98083.72
2023-04-05T05:38:13.880Z,98086.88
2023-04-05T05:40:41.976Z,98086.97
2023-04-05T05:43:10.500Z,98094.72
2023-04-05T05:45:38.245Z,98089.63
2023-04-05T05:48:05.965Z,98090.91
2023-04-05T05:50:33.736Z,98089.50
2023-04-05T05:53:01.890Z,98087.97
2023-04-05T05:55:30.919Z,98097.72
2023-04-05T05:57:58.468Z,98101.78
2023-04-05T06:00:25.987Z,98088.81
2023-04-05T06:02:53.745Z,98088.28
2023-04-05T06:05:21.334Z,98086.72
2023-04-05T06:07:48.911Z,98088.38
2023-04-05T06:10:16.396Z,98087.88
2023-04-05T06:12:45.332Z,98085.47
2023-04-05T06:15:12.823Z,98086.75
2023-04-05T06:17:42.621Z,98088.94
2023-04-05T06:20:11.664Z,98097.41
2023-04-05T06:22:40.301Z,98091.34
2023-04-05T06:25:09.260Z,98096.38
2023-04-05T06:27:36.821Z,98089.13
2023-04-05T06:30:07.005Z,98092.69
2023-04-05T06:32:34.612Z,98094.06
2023-04-05T06:35:03.660Z,98082.22
2023-04-05T06:37:31.222Z,98085.88
2023-04-05T06:40:00.366Z,98090.56
2023-04-05T06:42:28.131Z,98077.50
2023-04-05T06:45:00.906Z,98080.09
2023-04-05T06:47:29.809Z,98084.44
2023-04-05T06:49:57.322Z,98083.44
2023-04-05T06:52:24.901Z,98079.00
2023-04-05T06:54:52.434Z,98083.31
2023-04-05T06:57:19.907Z,98083.81
2023-04-05T06:59:47.424Z,98085.22
2023-04-05T07:02:14.926Z,98083.47
2023-04-05T07:04:44.277Z,98087.16
2023-04-05T07:07:11.986Z,98078.59
2023-04-05T07:09:40.248Z,98086.66
2023-04-05T07:12:08.792Z,98081.06
2023-04-05T07:14:38.074Z,98081.66
2023-04-05T07:17:07.076Z,98087.75
2023-04-05T07:19:34.744Z,98086.69
2023-04-05T07:22:03.548Z,98076.34
2023-04-05T07:24:31.685Z,98066.38
2023-04-05T07:26:59.280Z,98065.41
2023-04-05T07:29:26.866Z,98067.91
2023-04-05T07:31:54.516Z,98071.53
2023-04-05T07:34:22.073Z,98064.34
2023-04-05T07:36:50.330Z,98072.22
2023-04-05T07:39:20.086Z,98062.94
2023-04-05T07:41:47.715Z,98067.72
2023-04-05T07:44:15.242Z,98063.19
2023-04-05T07:46:46.892Z,98059.22
2023-04-05T07:49:15.964Z,98048.81
2023-04-05T07:51:43.762Z,98047.63
2023-04-05T07:54:11.566Z,98047.13
2023-04-05T07:56:40.637Z,98052.00
2023-04-05T07:59:08.277Z,98051.81
2023-04-05T08:01:35.985Z,98059.94
2023-04-05T08:04:03.565Z,98062.97
2023-04-05T08:06:31.165Z,98057.66
2023-04-05T08:08:58.664Z,98047.56
2023-04-05T08:11:26.755Z,98047.78
2023-04-05T08:13:56.619Z,98047.66
2023-04-05T08:16:24.219Z,98054.78
2023-04-05T08:18:51.807Z,98056.22
2023-04-05T08:21:19.528Z,98049.75
2023-04-05T08:23:47.048Z,98050.38
2023-04-05T08:26:14.565Z,98053.44
2023-04-05T08:28:42.111Z,98048.91
2023-04-05T08:31:13.440Z,98054.97
2023-04-05T08:33:41.291Z,98051.66
2023-04-05T08:36:10.012Z,98040.19
2023-04-05T08:38:37.692Z,98028.88
2023-04-05T08:41:08.793Z,98031.78
2023-04-05T08:43:44.573Z,98024.28
2023-04-05T08:46:15.527Z,98030.25
2023-04-05T08:48:45.776Z,98036.66
2023-04-05T08:51:13.441Z,98034.81
2023-04-05T08:53:41.146Z,98027.19
2023-04-05T08:56:09.198Z,98041.63
2023-04-05T08:58:38.812Z,98030.66
2023-04-05T09:01:06.980Z,98038.16
2023-04-05T09:03:38.210Z,98038.44
2023-04-05T09:06:08.576Z,98033.31
2023-04-05T09:08:36.242Z,98033.84
2023-04-05T09:11:03.801Z,98031.34
2023-04-05T09:13:31.945Z,98030.63
2023-04-05T09:16:02.197Z,98026.78
2023-04-05T09:18:29.939Z,98028.69
2023-04-05T09:21:03.827Z,98031.28
2023-04-05T09:23:31.410Z,98023.84
2023-04-05T09:25:58.913Z,98025.22
2023-04-05T09:28:41.146Z,98024.16
2023-04-05T09:31:08.721Z,98025.50
2023-04-05T09:33:36.807Z,98023.31
2023-04-05T09:36:06.345Z,98024.72
2023-04-05T09:38:43.734Z,98026.44
2023-04-05T09:41:11.559Z,98031.16
2023-04-05T09:43:40.530Z,98026.09
2023-04-05T09:46:08.229Z,98025.81
2023-04-05T09:48:47.153Z,98025.25
2023-04-05T09:51:16.711Z,98013.00
2023-04-05T09:54:00.208Z,98024.38
2023-04-05T09:56:28.529Z,98015.63
2023-04-05T09:59:01.278Z,98019.44
2023-04-05T10:01:29.780Z,98010.44
2023-04-05T10:03:58.413Z,98013.66
2023-04-05T10:06:38.934Z,98007.78
2023-04-05T10:09:07.358Z,98000.97
2023-04-05T10:11:35.606Z,98004.31
2023-04-05T10:14:05.251Z,98003.94
2023-04-05T10:16:35.518Z,98005.44
2023-04-05T10:19:06.865Z,98008.91
2023-04-05T10:21:37.903Z,98004.09
2023-04-05T10:24:09.718Z,98008.59
2023-04-05T10:26:42.364Z,98009.66
2023-04-05T10:29:10.805Z,97999.91
2023-04-05T10:31:43.558Z,98003.31
2023-04-05T10:34:16.470Z,98003.53
2023-04-05T10:36:51.115Z,98001.59
2023-04-05T10:39:29.249Z,97998.50
2023-04-05T10:42:01.485Z,97989.09
2023-04-05T10:44:31.555Z,97993.94
2023-04-05T10:46:59.367Z,97992.13
2023-04-05T10:49:34.049Z,97991.34
2023-04-05T10:52:03.508Z,97995.03
2023-04-05T10:54:33.910Z,97989.88
2023-04-05T10:57:02.787Z,97992.66
2023-04-05T10:59:30.501Z,97997.94
2023-04-05T11:01:58.869Z,97994.94
2023-04-05T11:04:26.660Z,97998.09
2023-04-05T11:07:15.345Z,97994.75
2023-04-05T11:09:52.924Z,97982.66
2023-04-05T11:12:20.424Z,97974.69
2023-04-05T11:14:48.058Z,97978.38
2023-04-05T11:17:26.084Z,97975.88
2023-04-05T11:20:03.730Z,97973.69
2023-04-05T11:22:32.700Z,97967.72
2023-04-05T11:25:02.846Z,97971.00
2023-04-05T11:27:31.977Z,97958.09
2023-04-05T11:30:00.119Z,97965.00
2023-04-05T11:32:39.673Z,97965.75
2023-04-05T11:35:08.558Z,97953.78
2023-04-05T11:37:57.195Z,97952.44
2023-04-05T11:40:25.836Z,97950.56
2023-04-05T11:43:00.307Z,97958.31
2023-04-05T11:45:30.012Z,97953.63
2023-04-05T11:48:00.754Z,97942.38
2023-04-05T11:50:29.361Z,97943.94
2023-04-05T11:53:11.956Z,97936.91
2023-04-05T11:55:40.184Z,97937.22
2023-04-05T11:58:15.013Z,97939.06
2023-04-05T12:00:42.721Z,97940.69
2023-04-05T12:03:12.904Z,97936.16
2023-04-05T12:05:48.017Z,97938.44
2023-04-05T12:08:17.173Z,97937.44
2023-04-05T12:10:44.735Z,97921.28
2023-04-05T12:13:12.251Z,97918.09
2023-04-05T12:15:41.113Z,97928.03
2023-04-05T12:18:17.586Z,97919.06
2023-04-05T12:20:45.629Z,97921.75
2023-04-05T12:23:13.340Z,97916.13
2023-04-05T12:25:42.937Z,97907.44
2023-04-05T12:28:11.612Z,97903.78
2023-04-05T12:30:49.426Z,97904.66
2023-04-05T12:33:17.448Z,97907.78
2023-04-05T12:35:45.011Z,97898.00
2023-04-05T12:38:17.463Z,97899.03
2023-04-05T12:40:46.536Z,97896.13
2023-04-05T12:43:19.613Z,97898.13
2023-04-05T12:45:47.328Z,97894.56
2023-04-05T12:48:15.841Z,97887.31
2023-04-05T12:50:44.694Z,97887.31
2023-04-05T12:53:20.162Z,97900.66
2023-04-05T12:55:52.871Z,97896.66
2023-04-05T12:58:21.229Z,97892.41
2023-04-05T13:00:48.818Z,97890.50
2023-04-05T13:03:18.085Z,97889.63
2023-04-05T13:05:45.875Z,97889.00
2023-04-05T13:08:13.394Z,97887.00
2023-04-05T13:10:40.987Z,97880.38
2023-04-05T13:13:09.853Z,97884.94
2023-04-05T13:15:37.391Z,97883.72
2023-04-05T13:18:05.570Z,97878.00
2023-04-05T13:20:33.330Z,97881.44
2023-04-05T13:23:00.920Z,97865.34
2023-04-05T13:25:28.569Z,97866.25
2023-04-05T13:27:56.114Z,97869.00
2023-04-05T13:30:25.399Z,97869.47
2023-04-05T13:32:52.863Z,97855.84
2023-04-05T13:35:20.649Z,97863.53
2023-04-05T13:37:49.615Z,97848.75
2023-04-05T13:40:17.525Z,97852.16
2023-04-05T13:42:45.684Z,97850.78
2023-04-05T13:45:13.217Z,97853.03
2023-04-05T13:47:42.309Z,97844.88
2023-04-05T13:50:10.342Z,97846.66
2023-04-05T13:52:38.396Z,97843.91
2023-04-05T13:55:06.621Z,97840.69
2023-04-05T13:57:34.142Z,97835.47
2023-04-05T14:00:01.991Z,97836.13
2023-04-05T14:02:39.472Z,97829.50
2023-04-05T14:05:09.810Z,97834.31
2023-04-05T14:07:37.594Z,97821.16
2023-04-05T14:10:06.526Z,97824.59
2023-04-05T14:12:34.708Z,97818.25
2023-04-05T14:15:02.210Z,97826.09
2023-04-05T14:17:29.712Z,97818.94
2023-04-05T14:19:57.205Z,97815.69
2023-04-05T14:22:26.178Z,97825.81
2023-04-05T14:24:53.815Z,97822.81
2023-04-05T14:27:26.410Z,97821.31
2023-04-05T14:29:56.878Z,97812.97
2023-04-05T14:32:25.129Z,97816.44
2023-04-05T14:34:52.654Z,97808.47
2023-04-05T14:37:20.300Z,97808.81
2023-04-05T14:39:49.133Z,97801.44
2023-04-05T14:42:16.633Z,97810.13
2023-04-05T14:44:44.148Z,97809.25
2023-04-05T14:47:11.700Z,97812.00
2023-04-05T14:49:39.179Z,97807.50
2023-04-05T14:52:06.711Z,97801.81
2023-04-05T14:54:34.273Z,97805.63
2023-04-05T14:57:03.162Z,97809.41
2023-04-05T14:59:30.938Z,97803.16
2023-04-05T15:01:58.597Z,97807.88
2023-04-05T15:04:26.500Z,97806.88
2023-04-05T15:06:53.967Z,97795.38
2023-04-05T15:09:21.681Z,97797.28
2023-04-05T15:11:49.192Z,97791.63
2023-04-05T15:14:29.020Z,97785.25
2023-04-05T15:16:59.556Z,97793.94
2023-04-05T15:19:27.395Z,97780.66
2023-04-05T15:21:54.979Z,97783.06
2023-04-05T15:24:22.479Z,97784.56
2023-04-05T15:26:49.992Z,97785.00
2023-04-05T15:29:18.798Z,97780.41
2023-04-05T15:31:46.503Z,97781.63
2023-04-05T15:34:14.125Z,97781.09
2023-04-05T15:36:42.467Z,97777.94
2023-04-05T15:39:10.109Z,97780.88
2023-04-05T15:41:37.714Z,97778.09
2023-04-05T15:44:05.214Z,97778.44
2023-04-05T15:46:34.101Z,97779.72
2023-04-05T15:49:02.009Z,97783.88
2023-04-05T15:51:29.836Z,97780.38
2023-04-05T15:53:57.814Z,97789.22
2023-04-05T15:56:25.443Z,97783.56
2023-04-05T15:58:53.173Z,97786.94
2023-04-05T16:01:20.740Z,97790.41
2023-04-05T16:03:49.767Z,97793.28
2023-04-05T16:06:17.348Z,97790.44
2023-04-05T16:08:44.849Z,97791.28
2023-04-05T16:11:12.367Z,97792.47
2023-04-05T16:13:39.878Z,97788.00
2023-04-05T16:16:07.658Z,97791.50
2023-04-05T16:18:35.162Z,97780.22
2023-04-05T16:21:04.016Z,97783.69
2023-04-05T16:23:31.947Z,97784.38
2023-04-05T16:25:59.571Z,97781.06
2023-04-05T16:28:27.093Z,97779.75
2023-04-05T16:30:55.768Z,97789.38
2023-04-05T16:33:23.266Z,97780.56
2023-04-05T16:35:50.791Z,97779.44
2023-04-05T16:38:19.681Z,97778.75
2023-04-05T16:40:47.206Z,97780.09
2023-04-05T16:43:14.724Z,97780.59
2023-04-05T16:45:43.902Z,97768.50
2023-04-05T16:48:12.753Z,97775.78
2023-04-05T16:50:41.328Z,97772.94
2023-04-05T16:53:10.163Z,97771.00
2023-04-05T16:55:38.967Z,97768.50
2023-04-05T16:58:06.455Z,97771.16
2023-04-05T17:00:33.953Z,97770.34
2023-04-05T17:03:01.900Z,97776.47
2023-04-05T17:05:29.468Z,97780.28
2023-04-05T17:07:56.995Z,97781.44
2023-04-05T17:10:24.622Z,97777.13
2023-04-05T17:12:53.461Z,97782.94
2023-04-05T17:15:21.068Z,97781.94
2023-04-05T17:17:48.658Z,97784.75
2023-04-05T17:20:16.338Z,97776.16
2023-04-05T17:22:43.933Z,97785.06
2023-04-05T17:25:12.205Z,97780.28
2023-04-05T17:27:39.719Z,97789.22
2023-04-05T17:30:10.104Z,97785.06
2023-04-05T17:32:37.877Z,97789.88
2023-04-05T17:35:06.281Z,97790.03
2023-04-05T17:37:33.811Z,97779.91
2023-04-05T17:40:01.343Z,97781.56
2023-04-05T17:42:28.815Z,97784.84
2023-04-05T17:44:56.917Z,97800.28
2023-04-05T17:47:25.910Z,97794.31
2023-04-05T17:49:53.529Z,97797.63
2023-04-05T17:52:22.583Z,97792.16
2023-04-05T17:54:52.285Z,97789.16
2023-04-05T17:57:19.853Z,97796.28
2023-04-05T17:59:47.491Z,97797.41
2023-04-05T18:02:15.099Z,97798.91
2023-04-05T18:04:44.323Z,97798.09
2023-04-05T18:07:11.868Z,97803.06
2023-04-05T18:09:42.040Z,97803.38
2023-04-05T18:12:09.634Z,97812.63
2023-04-05T18:14:37.513Z,97805.66
2023-04-05T18:17:06.164Z,97807.00
2023-04-05T18:19:33.744Z,97817.22
2023-04-05T18:22:02.629Z,97814.84
2023-04-05T18:24:30.479Z,97810.66
2023-04-05T18:26:58.328Z,97811.47
2023-04-05T18:29:28.565Z,97821.91
2023-04-05T18:31:56.234Z,97821.44
2023-04-05T18:34:24.940Z,97829.00
2023-04-05T18:36:53.390Z,97820.91
2023-04-05T18:39:28.416Z,97827.00
2023-04-05T18:41:55.986Z,97823.50
2023-04-05T18:44:23.536Z,97824.28
2023-04-05T18:46:51.132Z,97826.16
2023-04-05T18:49:19.245Z,97837.44
2023-04-05T18:51:48.708Z,97826.84
2023-04-05T18:54:18.363Z,97830.16
2023-04-05T18:56:47.927Z,97839.59
2023-04-05T18:59:16.196Z,97844.44
2023-04-05T19:01:44.027Z,97846.56
2023-04-05T19:04:11.666Z,97845.72
2023-04-05T19:06:39.182Z,97844.88
2023-04-05T19:09:07.402Z,97848.41
2023-04-05T19:11:35.086Z,97846.44
2023-04-05T19:14:04.151Z,97839.00
2023-04-05T19:16:31.974Z,97850.50
2023-04-05T19:18:59.603Z,97850.38
2023-04-05T19:21:27.476Z,97856.47
2023-04-05T19:23:56.041Z,97851.88
2023-04-05T19:26:23.740Z,97850.28
2023-04-05T19:28:51.435Z,97853.31
2023-04-05T19:31:20.329Z,97852.88
2023-04-05T19:33:49.167Z,97851.44
2023-04-05T19:36:17.324Z,97848.25
2023-04-05T19:38:44.978Z,97853.69
2023-04-05T19:41:12.465Z,97846.00
2023-04-05T19:43:41.288Z,97849.72
2023-04-05T19:46:10.666Z,97848.13
2023-04-05T19:48:41.161Z,97848.50
2023-04-05T19:51:09.560Z,97847.03
2023-04-05T19:53:45.087Z,97846.06
2023-04-05T19:56:15.010Z,97834.44
2023-04-05T19:58:42.891Z,97839.78
2023-04-05T20:01:10.710Z,97838.88
2023-04-05T20:03:42.007Z,97844.47
2023-04-05T20:06:11.128Z,97846.06
2023-04-05T20:08:40.358Z,97834.66
2023-04-05T20:11:11.864Z,97836.25
2023-04-05T20:13:44.212Z,97830.47
2023-04-05T20:16:13.504Z,97836.94
2023-04-05T20:18:45.528Z,97836.31
2023-04-05T20:21:13.517Z,97837.25
2023-04-05T20:23:42.605Z,97844.44
2023-04-05T20:26:13.376Z,97840.88
2023-04-05T20:28:41.958Z,97838.34
2023-04-05T20:31:11.061Z,97837.69
2023-04-05T20:33:49.061Z,97831.81
2023-04-05T20:36:21.434Z,97831.00
2023-04-05T20:38:49.759Z,97830.00
2023-04-05T20:41:19.719Z,97833.84
2023-04-05T20:43:47.770Z,97834.03
2023-04-05T20:46:16.074Z,97837.34
2023-04-05T20:48:44.239Z,97833.59
2023-04-05T20:51:16.199Z,97834.88
2023-04-05T20:53:44.192Z,97840.88
2023-04-05T20:56:12.334Z,97825.78
2023-04-05T20:58:41.009Z,97825.88
2023-04-05T21:01:09.487Z,97833.22
2023-04-05T21:03:38.894Z,97835.97
2023-04-05T21:06:08.240Z,97829.34
2023-04-05T21:08:39.182Z,97823.13
2023-04-05T21:11:07.224Z,97823.13
2023-04-05T21:13:35.722Z,97823.81
2023-04-05T21:16:03.336Z,97829.38
2023-04-05T21:18:31.029Z,97824.06
2023-04-05T21:20:58.555Z,97833.78
2023-04-05T21:23:29.203Z,97828.78
2023-04-05T21:25:58.529Z,97824.09
2023-04-05T21:28:26.859Z,97828.28
2023-04-05T21:30:54.435Z,97819.19
2023-04-05T21:33:22.307Z,97830.88
2023-04-05T21:35:50.759Z,97823.53
2023-04-05T21:38:18.852Z,97826.63
2023-04-05T21:40:46.385Z,97817.28
2023-04-05T21:43:15.229Z,97814.31
2023-04-05T21:45:42.776Z,97820.53
2023-04-05T21:48:10.371Z,97827.06
2023-04-05T21:50:38.077Z,97815.59
2023-04-05T21:53:07.221Z,97813.53
2023-04-05T21:55:34.920Z,97815.72
2023-04-05T21:58:02.421Z,97810.75
2023-04-05T22:00:31.376Z,97818.13
2023-04-05T22:02:58.925Z,97813.09
2023-04-05T22:05:37.406Z,97811.63
2023-04-05T22:08:07.433Z,97808.19
2023-04-05T22:10:36.928Z,97808.19
2023-04-05T22:13:04.447Z,97806.50
2023-04-05T22:15:33.261Z,97811.91
2023-04-05T22:18:00.900Z,97813.25
2023-04-05T22:20:28.653Z,97815.09
2023-04-05T22:22:56.205Z,97813.84
2023-04-05T22:25:23.715Z,97805.22
2023-04-05T22:27:51.270Z,97810.19
2023-04-05T22:30:19.243Z,97816.16
2023-04-05T22:35:16.901Z,97809.84
2023-04-05T22:37:44.481Z,97811.94
2023-04-05T22:40:13.136Z,97811.66
2023-04-05T22:42:41.977Z,97808.63
2023-04-05T22:45:10.497Z,97809.84
2023-04-05T22:47:38.025Z,97811.94
2023-04-05T22:50:08.218Z,97812.91
2023-04-05T22:52:35.813Z,97806.41
2023-04-05T22:55:04.376Z,97804.91
2023-04-05T22:57:32.397Z,97805.56
2023-04-05T22:59:59.967Z,97803.91
2023-04-05T23:02:29.356Z,97810.59
2023-04-05T23:04:57.115Z,97809.34
2023-04-05T23:07:26.101Z,97796.72
2023-04-05T23:09:53.721Z,97797.41
2023-04-05T23:12:21.244Z,97797.69
2023-04-05T23:14:48.751Z,97801.44
2023-04-05T23:17:16.690Z,97796.44
2023-04-05T23:19:44.233Z,97797.28
2023-04-05T23:22:11.751Z,97798.25
2023-04-05T23:24:40.610Z,97797.13
2023-04-05T23:27:08.192Z,97796.69
2023-04-05T23:29:35.821Z,97797.38
2023-04-05T23:32:03.279Z,97794.19
2023-04-05T23:34:30.941Z,97787.81
2023-04-05T23:36:58.427Z,97792.56
2023-04-05T23:39:25.900Z,97793.94
2023-04-05T23:41:54.772Z,97793.53
2023-04-05T23:44:22.279Z,97799.78
2023-04-05T23:46:49.797Z,97793.38
2023-04-05T23:49:17.298Z,97791.72
2023-04-05T23:51:44.815Z,97790.59
2023-04-05T23:54:12.474Z,97784.81
2023-04-05T23:56:40.033Z,97784.50
2023-04-05T23:59:09.096Z,97783.00
